Time;durP1;ratioP1;P1;durP2;ratioP2;P2;SDS_P1;SDS_P2;PMS_P1;PMS_P2;Temp;Humidity;BMP_temperature;BMP_pressure;BME280_temperature;BME280_humidity;BME280_pressure;Samples;Min_cycle;Max_cycle;Signal;HPM_P1;HPM_P2
2023/03/20 00:01:58;;;;;;;24.15;10.50;;;;;;;;;;5002701;28;93504;-82
2023/03/20 00:04:25;;;;;;;25.05;11.68;;;;;;;;;;4989348;28;94308;-84
2023/03/20 00:06:51;;;;;;;25.35;11.40;;;;;;;;;;4996241;28;95352;-84
2023/03/20 00:09:17;;;;;;;23.30;11.05;;;;;;;;;;4997715;28;96642;-84
2023/03/20 00:11:52;;;;;;;19.38;10.25;;;;;;;;;;4974911;28;92500;-85
2023/03/20 00:14:21;;;;;;;20.27;11.13;;;;;;;;;;4976222;28;93220;-84
2023/03/20 00:16:48;;;;;;;23.52;11.05;;;;;;;;;;4983184;28;94531;-84
2023/03/20 00:19:19;;;;;;;28.48;11.35;;;;;;;;;;4995728;28;92698;-83
2023/03/20 00:21:46;;;;;;;28.17;11.35;;;;;;;;;;4987485;28;94162;-84
2023/03/20 00:24:14;;;;;;;27.23;12.18;;;;;;;;;;4975978;28;92847;-83
2023/03/20 00:26:40;;;;;;;27.95;12.10;;;;;;;;;;4974196;28;92497;-84
2023/03/20 00:29:14;;;;;;;22.92;11.20;;;;;;;;;;4977342;28;93173;-84
2023/03/20 00:31:40;;;;;;;29.25;13.40;;;;;;;;;;4988018;28;95404;-83
2023/03/20 00:34:12;;;;;;;19.83;12.27;;;;;;;;;;4991905;28;96742;-84
2023/03/20 00:36:39;;;;;;;28.90;13.98;;;;;;;;;;4979321;28;94612;-84
2023/03/20 00:39:05;;;;;;;23.88;13.32;;;;;;;;;;4994871;28;92440;-84
2023/03/20 00:41:34;;;;;;;25.70;13.15;;;;;;;;;;4993484;28;93206;-84
2023/03/20 00:44:04;;;;;;;24.73;12.75;;;;;;;;;;4992176;28;94086;-84
2023/03/20 00:46:37;;;;;;;27.77;13.10;;;;;;;;;;4993587;28;92528;-84
2023/03/20 00:49:03;;;;;;;29.40;13.02;;;;;;;;;;4986778;28;93022;-84
2023/03/20 00:51:30;;;;;;;21.77;12.98;;;;;;;;;;4978872;28;94288;-84
2023/03/20 00:53:57;;;;;;;27.63;12.95;;;;;;;;;;4978453;28;93145;-84
2023/03/20 00:56:29;;;;;;;20.85;11.95;;;;;;;;;;4975396;28;96137;-83
2023/03/20 00:58:55;;;;;;;25.60;12.30;;;;;;;;;;4992123;28;92569;-85
2023/03/20 01:01:22;;;;;;;26.48;12.63;;;;;;;;;;4991204;28;93963;-85
2023/03/20 01:03:48;;;;;;;25.27;12.60;;;;;;;;;;4989810;28;94460;-85
2023/03/20 01:06:15;;;;;;;17.88;10.77;;;;;;;;;;4988855;28;92915;-84
2023/03/20 01:08:41;;;;;;;34.75;11.73;;;;;;;;;;5004909;28;94229;-84
2023/03/20 01:11:09;;;;;;;28.02;10.85;;;;;;;;;;5013755;28;93395;-83
2023/03/20 01:13:36;;;;;;;21.35;10.18;;;;;;;;;;4989037;28;92138;-83
2023/03/20 01:16:03;;;;;;;20.40;9.30;;;;;;;;;;4976289;28;94320;-84
2023/03/20 01:18:30;;;;;;;27.38;10.63;;;;;;;;;;4995365;28;92372;-83
2023/03/20 01:20:56;;;;;;;18.95;8.25;;;;;;;;;;4989066;28;94863;-84
2023/03/20 01:23:25;;;;;;;16.35;8.23;;;;;;;;;;4975380;28;93566;-82
2023/03/20 01:25:51;;;;;;;17.40;8.60;;;;;;;;;;4975841;28;92405;-84
2023/03/20 01:28:22;;;;;;;17.52;7.53;;;;;;;;;;4975467;28;94299;-84
2023/03/20 01:30:49;;;;;;;18.25;7.63;;;;;;;;;;4979419;28;94028;-85
2023/03/20 01:33:17;;;;;;;17.83;6.65;;;;;;;;;;4994454;28;92507;-84
2023/03/20 01:35:44;;;;;;;11.90;6.35;;;;;;;;;;4994836;28;94278;-84
2023/03/20 01:38:11;;;;;;;17.58;6.50;;;;;;;;;;4991538;28;92853;-85
2023/03/20 01:40:38;;;;;;;19.27;7.00;;;;;;;;;;4993662;28;94837;-85
2023/03/20 01:43:08;;;;;;;12.10;6.20;;;;;;;;;;4991817;28;93916;-83
2023/03/20 01:45:35;;;;;;;10.43;5.35;;;;;;;;;;4989748;28;94886;-83
2023/03/20 01:48:13;;;;;;;11.48;5.60;;;;;;;;;;4994493;28;99807;-82
2023/03/20 01:50:40;;;;;;;8.82;5.28;;;;;;;;;;4983579;28;94548;-85
2023/03/20 01:53:06;;;;;;;10.68;5.55;;;;;;;;;;4987038;28;92465;-84
2023/03/20 01:55:34;;;;;;;10.15;5.28;;;;;;;;;;4991931;28;94478;-84
2023/03/20 01:58:04;;;;;;;11.50;5.53;;;;;;;;;;4989746;28;95028;-83
2023/03/20 02:00:30;;;;;;;9.20;5.10;;;;;;;;;;4987665;28;94381;-83
2023/03/20 02:02:57;;;;;;;9.57;5.05;;;;;;;;;;4987269;28;93863;-84
2023/03/20 02:05:24;;;;;;;15.52;5.40;;;;;;;;;;4994365;28;94356;-83
2023/03/20 02:08:10;;;;;;;13.45;5.30;;;;;;;;;;4983693;28;96622;-83
2023/03/20 02:10:37;;;;;;;13.85;5.53;;;;;;;;;;4974563;28;95825;-83
2023/03/20 02:13:04;;;;;;;14.77;6.18;;;;;;;;;;4991872;28;93075;-83
2023/03/20 02:15:31;;;;;;;13.88;5.63;;;;;;;;;;4988329;28;93642;-82
2023/03/20 02:17:57;;;;;;;16.95;6.20;;;;;;;;;;4991333;28;97159;-82
2023/03/20 02:20:32;;;;;;;17.25;6.15;;;;;;;;;;4994275;28;92633;-83
2023/03/20 02:23:14;;;;;;;12.25;5.97;;;;;;;;;;4992657;28;93475;-83
2023/03/20 02:25:52;;;;;;;12.88;6.00;;;;;;;;;;4984972;28;93966;-83
2023/03/20 02:28:18;;;;;;;13.68;6.53;;;;;;;;;;4984795;28;93107;-83
2023/03/20 02:30:57;;;;;;;15.18;6.53;;;;;;;;;;4991780;28;95098;-83
2023/03/20 02:33:43;;;;;;;11.25;6.22;;;;;;;;;;4988418;28;92503;-84
2023/03/20 02:36:09;;;;;;;14.55;6.18;;;;;;;;;;4989614;28;94883;-82
2023/03/20 02:38:51;;;;;;;14.30;6.60;;;;;;;;;;4975760;28;93769;-82
2023/03/20 02:41:23;;;;;;;15.48;6.15;;;;;;;;;;4994741;28;92460;-84
2023/03/20 02:43:49;;;;;;;24.35;6.93;;;;;;;;;;4992234;28;94503;-84
2023/03/20 02:46:19;;;;;;;10.55;6.22;;;;;;;;;;4992103;28;92540;-83
2023/03/20 02:48:57;;;;;;;15.98;7.07;;;;;;;;;;4993151;28;93234;-83
2023/03/20 02:51:27;;;;;;;22.40;7.60;;;;;;;;;;4992034;28;93852;-81
2023/03/20 02:53:56;;;;;;;12.88;6.72;;;;;;;;;;4988990;28;91951;-81
2023/03/20 02:56:30;;;;;;;11.95;7.85;;;;;;;;;;4989815;28;92620;-81
2023/03/20 02:59:06;;;;;;;15.52;8.23;;;;;;;;;;4977440;28;93159;-83
2023/03/20 03:01:36;;;;;;;19.42;8.75;;;;;;;;;;4987788;28;95440;-83
2023/03/20 03:04:06;;;;;;;20.13;10.23;;;;;;;;;;4983476;28;98012;-84
2023/03/20 03:06:35;;;;;;;24.90;10.87;;;;;;;;;;4983269;28;92521;-81
2023/03/20 03:09:22;;;;;;;29.13;12.02;;;;;;;;;;4991822;28;93219;-82
2023/03/20 03:11:53;;;;;;;38.25;13.82;;;;;;;;;;4991470;28;94126;-82
2023/03/20 03:14:25;;;;;;;27.65;12.63;;;;;;;;;;4993528;28;92382;-82
2023/03/20 03:16:52;;;;;;;28.65;12.93;;;;;;;;;;4993287;28;93183;-82
2023/03/20 03:19:22;;;;;;;28.63;14.48;;;;;;;;;;4993652;28;93611;-82
2023/03/20 03:21:49;;;;;;;26.03;13.17;;;;;;;;;;5008855;28;92449;-82
2023/03/20 03:24:30;;;;;;;22.95;12.55;;;;;;;;;;5013289;28;96156;-82
2023/03/20 03:27:20;;;;;;;27.05;12.73;;;;;;;;;;5015190;28;96224;-83
2023/03/20 03:29:49;;;;;;;31.48;13.55;;;;;;;;;;4983567;28;96886;-83
2023/03/20 03:32:33;;;;;;;33.90;13.27;;;;;;;;;;4977181;28;97107;-83
2023/03/20 03:35:00;;;;;;;31.40;13.27;;;;;;;;;;4992866;28;92769;-83
2023/03/20 03:37:41;;;;;;;28.02;13.35;;;;;;;;;;4991394;28;93636;-83
2023/03/20 03:40:19;;;;;;;25.80;12.32;;;;;;;;;;4992438;28;93688;-82
2023/03/20 03:42:51;;;;;;;28.92;13.68;;;;;;;;;;4996447;28;92458;-83
2023/03/20 03:45:21;;;;;;;26.63;13.82;;;;;;;;;;4992457;28;93231;-83
2023/03/20 03:47:54;;;;;;;31.98;14.82;;;;;;;;;;4994719;28;94837;-83
2023/03/20 03:50:25;;;;;;;29.60;13.23;;;;;;;;;;4989352;28;93927;-83
2023/03/20 03:52:52;;;;;;;28.10;14.50;;;;;;;;;;4973785;28;95574;-83
2023/03/20 03:55:24;;;;;;;29.63;14.65;;;;;;;;;;4992726;28;92526;-83
2023/03/20 03:57:56;;;;;;;28.52;14.05;;;;;;;;;;4995646;28;94191;-83
2023/03/20 04:00:25;;;;;;;28.35;14.80;;;;;;;;;;4988571;28;94831;-83
2023/03/20 04:02:53;;;;;;;34.05;15.15;;;;;;;;;;4986619;28;92636;-84
2023/03/20 04:05:20;;;;;;;37.03;14.15;;;;;;;;;;4990303;28;93220;-84
2023/03/20 04:07:47;;;;;;;28.02;14.45;;;;;;;;;;4983922;28;94393;-84
2023/03/20 04:10:13;;;;;;;27.15;12.70;;;;;;;;;;4988033;28;92071;-83
2023/03/20 04:12:41;;;;;;;33.05;14.43;;;;;;;;;;4997386;28;92675;-84
2023/03/20 04:15:08;;;;;;;32.00;14.73;;;;;;;;;;4991010;28;92689;-83
2023/03/20 04:17:34;;;;;;;27.50;14.32;;;;;;;;;;4987346;28;94835;-82
2023/03/20 04:20:01;;;;;;;34.17;14.57;;;;;;;;;;4992004;28;93187;-81
2023/03/20 04:22:27;;;;;;;34.33;13.82;;;;;;;;;;4993499;28;92738;-81
2023/03/20 04:24:53;;;;;;;26.45;13.68;;;;;;;;;;4985439;28;93322;-82
2023/03/20 04:27:20;;;;;;;33.40;13.50;;;;;;;;;;4974069;28;93642;-83
2023/03/20 04:29:47;;;;;;;27.33;13.25;;;;;;;;;;4990005;28;92567;-82
2023/03/20 04:32:13;;;;;;;24.67;13.07;;;;;;;;;;4985120;28;93461;-82
2023/03/20 04:34:39;;;;;;;30.17;13.52;;;;;;;;;;4994146;28;93960;-81
2023/03/20 04:37:07;;;;;;;33.42;13.80;;;;;;;;;;4993166;28;97256;-83
2023/03/20 04:39:34;;;;;;;33.03;14.70;;;;;;;;;;4983816;28;94468;-83
2023/03/20 04:42:01;;;;;;;26.33;13.82;;;;;;;;;;4986825;28;94893;-83
2023/03/20 04:44:28;;;;;;;27.15;14.35;;;;;;;;;;4993967;28;96360;-81
2023/03/20 04:46:54;;;;;;;30.67;15.15;;;;;;;;;;4991615;28;92542;-83
2023/03/20 04:49:20;;;;;;;31.20;14.07;;;;;;;;;;4983999;28;92862;-84
2023/03/20 04:51:47;;;;;;;29.23;13.93;;;;;;;;;;4988596;28;94630;-83
2023/03/20 04:54:13;;;;;;;32.70;13.80;;;;;;;;;;4997383;28;94230;-83
2023/03/20 04:56:40;;;;;;;24.33;13.48;;;;;;;;;;4980624;28;94532;-84
2023/03/20 04:59:06;;;;;;;32.40;14.57;;;;;;;;;;4980739;28;91747;-83
2023/03/20 05:01:32;;;;;;;27.45;13.48;;;;;;;;;;5008701;28;92511;-79
2023/03/20 05:04:00;;;;;;;27.80;14.95;;;;;;;;;;4994789;28;93172;-80
2023/03/20 05:06:27;;;;;;;31.52;15.13;;;;;;;;;;4992913;28;95621;-81
2023/03/20 05:08:53;;;;;;;31.95;14.38;;;;;;;;;;4994697;28;92357;-81
2023/03/20 05:11:19;;;;;;;29.83;14.35;;;;;;;;;;4983441;28;93490;-81
2023/03/20 05:13:46;;;;;;;31.80;13.65;;;;;;;;;;4994842;28;93724;-81
2023/03/20 05:16:12;;;;;;;26.85;14.23;;;;;;;;;;4994476;28;93292;-81
2023/03/20 05:18:38;;;;;;;25.48;13.65;;;;;;;;;;4992649;28;93579;-82
2023/03/20 05:21:06;;;;;;;26.15;13.35;;;;;;;;;;4992295;28;92992;-81
2023/03/20 05:23:32;;;;;;;33.45;14.13;;;;;;;;;;4994531;28;93366;-81
2023/03/20 05:25:59;;;;;;;31.30;14.95;;;;;;;;;;4992201;28;93780;-81
2023/03/20 05:28:26;;;;;;;28.65;14.38;;;;;;;;;;4994178;28;92419;-81
2023/03/20 05:30:52;;;;;;;24.58;14.50;;;;;;;;;;4987359;28;94830;-80
2023/03/20 05:33:18;;;;;;;28.90;14.48;;;;;;;;;;4981136;28;92867;-81
2023/03/20 05:35:45;;;;;;;29.85;14.20;;;;;;;;;;4990428;28;92625;-82
2023/03/20 05:38:11;;;;;;;30.08;13.93;;;;;;;;;;4994896;28;93623;-81
2023/03/20 05:40:38;;;;;;;26.23;13.52;;;;;;;;;;4993379;28;92500;-81
2023/03/20 05:43:04;;;;;;;26.25;13.43;;;;;;;;;;4993189;28;93230;-81
2023/03/20 05:45:30;;;;;;;26.92;13.52;;;;;;;;;;4991444;28;93515;-81
2023/03/20 05:47:57;;;;;;;31.67;14.27;;;;;;;;;;4988311;28;92601;-82
2023/03/20 05:50:23;;;;;;;37.75;14.15;;;;;;;;;;4991517;28;93251;-83
2023/03/20 05:52:50;;;;;;;22.23;13.57;;;;;;;;;;4989330;28;93974;-82
2023/03/20 05:55:16;;;;;;;24.17;13.85;;;;;;;;;;4990641;28;96631;-82
2023/03/20 05:57:43;;;;;;;29.05;14.02;;;;;;;;;;4990034;28;96677;-82
2023/03/20 06:00:09;;;;;;;31.08;13.82;;;;;;;;;;4987322;28;94414;-81
2023/03/20 06:02:36;;;;;;;20.88;12.20;;;;;;;;;;4987765;28;92489;-81
2023/03/20 06:05:03;;;;;;;29.10;12.80;;;;;;;;;;4994467;28;93502;-81
2023/03/20 06:07:29;;;;;;;28.75;13.63;;;;;;;;;;4992855;28;93162;-81
2023/03/20 06:09:56;;;;;;;28.85;13.60;;;;;;;;;;4983646;28;93214;-82
2023/03/20 06:12:22;;;;;;;27.83;12.57;;;;;;;;;;4991079;28;94819;-81
2023/03/20 06:14:49;;;;;;;25.95;12.57;;;;;;;;;;4989590;28;93269;-82
2023/03/20 06:17:15;;;;;;;29.38;13.25;;;;;;;;;;4986579;28;94356;-82
2023/03/20 06:19:41;;;;;;;30.60;13.82;;;;;;;;;;4988964;28;96331;-81
2023/03/20 06:22:08;;;;;;;30.83;13.75;;;;;;;;;;4984992;28;93317;-82
2023/03/20 06:24:34;;;;;;;24.77;12.68;;;;;;;;;;4993226;28;93048;-82
2023/03/20 06:27:01;;;;;;;22.33;12.63;;;;;;;;;;4988840;28;92469;-81
2023/03/20 06:29:27;;;;;;;24.98;13.02;;;;;;;;;;4973838;28;93003;-81
2023/03/20 06:31:54;;;;;;;27.80;12.77;;;;;;;;;;4975825;28;93788;-81
2023/03/20 06:34:20;;;;;;;23.85;12.82;;;;;;;;;;4986175;28;92483;-81
2023/03/20 06:36:47;;;;;;;26.85;12.80;;;;;;;;;;4991671;28;93029;-81
2023/03/20 06:39:13;;;;;;;28.42;13.32;;;;;;;;;;4991603;28;96691;-82
2023/03/20 06:41:40;;;;;;;30.85;12.70;;;;;;;;;;4984704;28;92510;-81
2023/03/20 06:44:06;;;;;;;25.33;13.02;;;;;;;;;;4992246;28;94861;-81
2023/03/20 06:46:32;;;;;;;25.92;13.48;;;;;;;;;;4996939;28;93653;-81
2023/03/20 06:49:00;;;;;;;25.00;12.93;;;;;;;;;;4991964;28;95746;-81
2023/03/20 06:51:26;;;;;;;25.80;12.60;;;;;;;;;;4990422;28;96381;-82
2023/03/20 06:53:52;;;;;;;23.90;12.32;;;;;;;;;;4981774;28;92444;-81
2023/03/20 06:56:19;;;;;;;25.65;13.90;;;;;;;;;;4991475;28;93919;-82
2023/03/20 06:58:45;;;;;;;23.05;12.30;;;;;;;;;;4989721;28;93740;-81
2023/03/20 07:01:13;;;;;;;27.40;12.20;;;;;;;;;;4984950;28;91854;-82
2023/03/20 07:03:40;;;;;;;27.67;12.25;;;;;;;;;;4984242;28;93509;-82
2023/03/20 07:06:07;;;;;;;30.13;12.57;;;;;;;;;;4982858;28;92659;-81
2023/03/20 07:08:33;;;;;;;18.30;10.50;;;;;;;;;;4988591;28;94775;-81
2023/03/20 07:11:01;;;;;;;27.52;12.52;;;;;;;;;;4997189;28;93935;-80
2023/03/20 07:13:27;;;;;;;21.48;11.52;;;;;;;;;;4997181;28;92390;-81
2023/03/20 07:15:53;;;;;;;25.55;13.23;;;;;;;;;;4996601;28;94238;-82
2023/03/20 07:18:30;;;;;;;25.63;12.38;;;;;;;;;;4985549;28;92497;-81
2023/03/20 07:20:58;;;;;;;31.25;13.30;;;;;;;;;;4995445;28;92422;-81
2023/03/20 07:23:24;;;;;;;24.90;11.88;;;;;;;;;;4996643;28;93380;-82
2023/03/20 07:25:50;;;;;;;26.02;12.60;;;;;;;;;;4999418;28;92813;-79
2023/03/20 07:28:17;;;;;;;22.13;11.10;;;;;;;;;;4996744;28;93593;-82
2023/03/20 07:30:43;;;;;;;28.92;11.38;;;;;;;;;;4995386;28;94765;-82
2023/03/20 07:33:09;;;;;;;34.20;12.02;;;;;;;;;;4987658;28;95204;-82
2023/03/20 07:35:38;;;;;;;30.00;11.77;;;;;;;;;;4991044;28;96723;-81
2023/03/20 07:38:05;;;;;;;28.05;12.70;;;;;;;;;;4977852;28;92914;-82
2023/03/20 07:40:32;;;;;;;21.58;10.20;;;;;;;;;;4991921;28;93210;-81
2023/03/20 07:43:00;;;;;;;25.67;11.48;;;;;;;;;;4989113;28;94215;-81
2023/03/20 07:45:26;;;;;;;26.88;10.73;;;;;;;;;;4989192;28;93224;-82
2023/03/20 07:47:52;;;;;;;24.40;11.13;;;;;;;;;;4987984;28;94150;-81
2023/03/20 07:50:19;;;;;;;35.47;11.23;;;;;;;;;;4985428;28;93195;-80
2023/03/20 07:52:48;;;;;;;26.73;10.60;;;;;;;;;;4993482;28;92472;-80
2023/03/20 07:55:16;;;;;;;20.07;10.20;;;;;;;;;;4994606;28;93211;-81
2023/03/20 07:57:44;;;;;;;29.35;10.52;;;;;;;;;;4993470;28;96177;-81
2023/03/20 08:00:11;;;;;;;29.83;10.18;;;;;;;;;;4994289;28;94211;-81
2023/03/20 08:02:37;;;;;;;24.77;9.73;;;;;;;;;;4994807;28;93180;-81
2023/03/20 08:05:03;;;;;;;27.95;10.45;;;;;;;;;;4995173;28;92907;-81
2023/03/20 08:07:30;;;;;;;28.83;10.05;;;;;;;;;;4990959;28;92516;-82
2023/03/20 08:09:56;;;;;;;22.70;9.57;;;;;;;;;;4995767;28;93200;-81
2023/03/20 08:12:23;;;;;;;24.40;9.38;;;;;;;;;;4995252;28;92592;-81
2023/03/20 08:14:49;;;;;;;15.32;8.43;;;;;;;;;;4991813;28;93163;-81
2023/03/20 08:17:16;;;;;;;22.65;9.52;;;;;;;;;;4994252;28;93777;-81
2023/03/20 08:19:46;;;;;;;23.73;8.27;;;;;;;;;;4994736;28;92624;-80
2023/03/20 08:22:13;;;;;;;15.85;8.40;;;;;;;;;;5001088;28;94894;-80
2023/03/20 08:24:39;;;;;;;23.83;8.95;;;;;;;;;;4993865;28;93339;-80
2023/03/20 08:27:06;;;;;;;18.20;8.48;;;;;;;;;;4989145;28;92614;-80
2023/03/20 08:29:33;;;;;;;24.58;8.80;;;;;;;;;;4992860;28;93727;-81
2023/03/20 08:31:59;;;;;;;23.75;8.60;;;;;;;;;;4996114;28;93399;-80
2023/03/20 08:34:26;;;;;;;21.52;8.30;;;;;;;;;;4989750;28;93302;-82
2023/03/20 08:36:52;;;;;;;22.58;8.48;;;;;;;;;;4980570;28;96394;-82
2023/03/20 08:39:18;;;;;;;18.83;8.30;;;;;;;;;;4983475;28;92672;-82
2023/03/20 08:41:45;;;;;;;22.35;8.40;;;;;;;;;;4994233;28;93975;-82
2023/03/20 08:44:11;;;;;;;22.80;8.57;;;;;;;;;;4994525;28;93857;-82
2023/03/20 08:46:38;;;;;;;24.15;7.72;;;;;;;;;;4985478;28;96310;-81
2023/03/20 08:49:06;;;;;;;23.45;8.18;;;;;;;;;;4991736;28;95897;-82
2023/03/20 08:51:32;;;;;;;21.63;8.15;;;;;;;;;;4974428;28;93474;-82
2023/03/20 08:53:58;;;;;;;21.20;7.70;;;;;;;;;;4978022;28;92751;-82
2023/03/20 08:56:25;;;;;;;29.63;7.65;;;;;;;;;;4944507;28;1164289;-82
2023/03/20 08:58:53;;;;;;;20.70;7.65;;;;;;;;;;4996035;28;92454;-82
2023/03/20 09:01:21;;;;;;;22.80;7.77;;;;;;;;;;4995945;28;94172;-81
2023/03/20 09:03:47;;;;;;;17.60;7.35;;;;;;;;;;4994088;28;93537;-83
2023/03/20 09:06:14;;;;;;;19.77;7.63;;;;;;;;;;4992828;28;92639;-82
2023/03/20 09:08:40;;;;;;;18.10;7.45;;;;;;;;;;4996522;28;95547;-83
2023/03/20 09:11:07;;;;;;;17.98;7.10;;;;;;;;;;4984155;28;96034;-82
2023/03/20 09:13:35;;;;;;;27.08;8.43;;;;;;;;;;4993290;28;92488;-82
2023/03/20 09:16:02;;;;;;;26.27;8.52;;;;;;;;;;4980501;28;94406;-82
2023/03/20 09:18:28;;;;;;;21.30;7.80;;;;;;;;;;4992184;28;92419;-82
2023/03/20 09:20:55;;;;;;;14.85;7.15;;;;;;;;;;4979532;28;94544;-81
2023/03/20 09:23:22;;;;;;;16.35;7.72;;;;;;;;;;4985471;28;94897;-81
2023/03/20 09:25:48;;;;;;;17.77;6.93;;;;;;;;;;4989121;28;92502;-80
2023/03/20 09:28:15;;;;;;;24.02;6.85;;;;;;;;;;4985714;28;93191;-81
2023/03/20 09:30:42;;;;;;;19.42;6.97;;;;;;;;;;4988036;28;93459;-80
2023/03/20 09:33:09;;;;;;;15.40;6.50;;;;;;;;;;4983083;28;93065;-82
2023/03/20 09:35:35;;;;;;;20.23;7.65;;;;;;;;;;4994821;28;94850;-82
2023/03/20 09:38:01;;;;;;;13.57;6.35;;;;;;;;;;4989056;28;92485;-82
2023/03/20 09:40:30;;;;;;;19.90;6.95;;;;;;;;;;4982897;28;93210;-81
2023/03/20 09:43:12;;;;;;;19.63;7.60;;;;;;;;;;4992619;28;93384;-81
2023/03/20 09:45:54;;;;;;;16.15;6.22;;;;;;;;;;4988087;28;93684;-82
2023/03/20 09:48:20;;;;;;;17.60;7.40;;;;;;;;;;4985806;28;93420;-82
2023/03/20 09:51:00;;;;;;;17.38;7.40;;;;;;;;;;4994021;28;94553;-81
2023/03/20 09:53:36;;;;;;;16.02;6.38;;;;;;;;;;4994844;28;91731;-82
2023/03/20 09:56:03;;;;;;;19.15;7.15;;;;;;;;;;4993260;28;93498;-82
2023/03/20 09:58:32;;;;;;;21.92;7.05;;;;;;;;;;4997022;28;93775;-82
2023/03/20 10:00:59;;;;;;;14.07;6.00;;;;;;;;;;4975846;28;94917;-82
2023/03/20 10:03:26;;;;;;;20.48;7.05;;;;;;;;;;4989806;28;93463;-81
2023/03/20 10:05:58;;;;;;;19.65;7.28;;;;;;;;;;4988957;28;92645;-81
2023/03/20 10:08:28;;;;;;;21.17;6.68;;;;;;;;;;4992628;28;93453;-81
2023/03/20 10:11:15;;;;;;;15.38;5.90;;;;;;;;;;4981007;28;94454;-81
2023/03/20 10:13:54;;;;;;;15.25;6.07;;;;;;;;;;4986989;28;92511;-82
2023/03/20 10:16:39;;;;;;;19.52;6.13;;;;;;;;;;4980169;28;94199;-82
2023/03/20 10:19:12;;;;;;;20.23;6.43;;;;;;;;;;4991490;28;92320;-82
2023/03/20 10:21:43;;;;;;;18.60;5.65;;;;;;;;;;4978807;28;93974;-82
2023/03/20 10:24:30;;;;;;;15.93;5.22;;;;;;;;;;4980574;28;94467;-82
2023/03/20 10:26:59;;;;;;;16.65;5.35;;;;;;;;;;4991893;28;95273;-81
2023/03/20 10:29:37;;;;;;;15.88;6.45;;;;;;;;;;4991885;28;99467;-81
2023/03/20 10:32:10;;;;;;;14.13;5.75;;;;;;;;;;4992507;28;93384;-82
2023/03/20 10:34:48;;;;;;;14.07;4.75;;;;;;;;;;4992406;28;92591;-82
2023/03/20 10:37:20;;;;;;;15.88;5.35;;;;;;;;;;4991277;28;93586;-82
2023/03/20 10:39:49;;;;;;;12.38;5.47;;;;;;;;;;4991566;28;93162;-82
2023/03/20 10:42:18;;;;;;;15.80;5.97;;;;;;;;;;4974700;28;92433;-82
2023/03/20 10:44:48;;;;;;;11.02;4.45;;;;;;;;;;5009564;28;93631;-82
2023/03/20 10:47:17;;;;;;;18.95;5.60;;;;;;;;;;4994254;28;92598;-82
2023/03/20 10:50:10;;;;;;;12.27;4.70;;;;;;;;;;4992135;28;96804;-82
2023/03/20 10:52:39;;;;;;;21.15;5.70;;;;;;;;;;4991157;28;97355;-82
2023/03/20 10:55:07;;;;;;;15.85;5.50;;;;;;;;;;4986197;28;92624;-81
2023/03/20 10:57:37;;;;;;;17.35;5.50;;;;;;;;;;4995357;28;92997;-81
2023/03/20 11:00:04;;;;;;;17.03;5.47;;;;;;;;;;4978996;28;93319;-81
2023/03/20 11:02:31;;;;;;;22.05;7.18;;;;;;;;;;4981971;28;92459;-82
2023/03/20 11:05:05;;;;;;;22.42;6.38;;;;;;;;;;4997344;28;94164;-82
2023/03/20 11:07:32;;;;;;;18.90;6.43;;;;;;;;;;4994243;28;92391;-82
2023/03/20 11:10:05;;;;;;;16.25;5.68;;;;;;;;;;4984780;28;94316;-82
2023/03/20 11:12:39;;;;;;;21.92;6.10;;;;;;;;;;5002636;28;94535;-83
2023/03/20 11:15:22;;;;;;;13.02;5.40;;;;;;;;;;4982174;28;92456;-80
2023/03/20 11:17:51;;;;;;;22.52;6.43;;;;;;;;;;4990309;28;94847;-80
2023/03/20 11:20:17;;;;;;;15.52;6.55;;;;;;;;;;4992359;28;93387;-80
2023/03/20 11:22:45;;;;;;;19.95;6.80;;;;;;;;;;4994452;28;92505;-80
2023/03/20 11:25:22;;;;;;;18.73;6.30;;;;;;;;;;4993205;28;93178;-81
2023/03/20 11:27:48;;;;;;;17.58;7.18;;;;;;;;;;4995223;28;94506;-79
2023/03/20 11:30:17;;;;;;;21.38;6.88;;;;;;;;;;4992597;28;94243;-79
2023/03/20 11:32:48;;;;;;;20.85;7.20;;;;;;;;;;4993872;28;94333;-79
2023/03/20 11:35:21;;;;;;;18.02;6.97;;;;;;;;;;4993313;28;91705;-82
2023/03/20 11:37:49;;;;;;;19.52;7.68;;;;;;;;;;4991436;28;93446;-81
2023/03/20 11:40:23;;;;;;;18.33;7.43;;;;;;;;;;4993862;28;94632;-82
2023/03/20 11:42:51;;;;;;;22.38;8.00;;;;;;;;;;4989980;28;96780;-82
2023/03/20 11:45:18;;;;;;;22.15;8.13;;;;;;;;;;4992197;28;95598;-82
2023/03/20 11:47:49;;;;;;;22.20;8.13;;;;;;;;;;4991261;28;94516;-81
2023/03/20 11:50:33;;;;;;;25.30;7.63;;;;;;;;;;4985709;28;92582;-82
2023/03/20 11:53:01;;;;;;;19.58;7.78;;;;;;;;;;4995412;28;94798;-81
2023/03/20 11:55:27;;;;;;;23.75;8.55;;;;;;;;;;4983277;28;92519;-82
2023/03/20 11:57:57;;;;;;;17.50;8.80;;;;;;;;;;4992052;28;93385;-82
2023/03/20 12:00:44;;;;;;;26.95;8.70;;;;;;;;;;4996200;28;93221;-82
2023/03/20 12:03:29;;;;;;;25.70;8.80;;;;;;;;;;4995867;28;92428;-82
2023/03/20 12:05:58;;;;;;;27.25;9.60;;;;;;;;;;4996940;28;94379;-82
2023/03/20 12:08:28;;;;;;;18.90;9.30;;;;;;;;;;4992575;28;96640;-83
2023/03/20 12:10:58;;;;;;;27.17;9.43;;;;;;;;;;4994752;28;92443;-82
2023/03/20 12:13:27;;;;;;;23.67;10.45;;;;;;;;;;4999245;28;95676;-83
2023/03/20 12:16:04;;;;;;;24.65;9.70;;;;;;;;;;4993877;28;94346;-81
2023/03/20 12:18:39;;;;;;;26.23;9.95;;;;;;;;;;4995672;28;93353;-81
2023/03/20 12:21:24;;;;;;;24.20;8.90;;;;;;;;;;4995751;28;94666;-81
2023/03/20 12:24:00;;;;;;;30.33;9.50;;;;;;;;;;4996782;28;92572;-83
2023/03/20 12:26:31;;;;;;;32.67;10.50;;;;;;;;;;5006722;28;94321;-82
2023/03/20 12:29:06;;;;;;;29.38;10.13;;;;;;;;;;4994113;28;94457;-82
2023/03/20 12:31:49;;;;;;;23.00;9.75;;;;;;;;;;4996126;28;94248;-82
2023/03/20 12:34:21;;;;;;;29.83;11.45;;;;;;;;;;4994084;28;94830;-82
2023/03/20 12:36:48;;;;;;;28.67;11.30;;;;;;;;;;4997312;28;94348;-82
2023/03/20 12:39:19;;;;;;;25.27;11.60;;;;;;;;;;4995901;28;97561;-84
2023/03/20 12:41:52;;;;;;;29.10;11.93;;;;;;;;;;4972887;28;94066;-84
2023/03/20 12:44:21;;;;;;;31.83;12.32;;;;;;;;;;4987983;28;92515;-81
2023/03/20 12:46:58;;;;;;;34.28;14.07;;;;;;;;;;5001426;28;97549;-81
2023/03/20 12:49:31;;;;;;;25.30;12.02;;;;;;;;;;5015598;28;94694;-81
2023/03/20 12:52:08;;;;;;;31.73;11.73;;;;;;;;;;4996728;28;91805;-83
2023/03/20 12:54:34;;;;;;;24.48;11.77;;;;;;;;;;4975693;28;93650;-82
2023/03/20 12:57:19;;;;;;;22.38;10.85;;;;;;;;;;4994723;28;94381;-81
2023/03/20 13:00:12;;;;;;;28.48;11.63;;;;;;;;;;4989260;28;94864;-82
2023/03/20 13:02:45;;;;;;;29.02;10.32;;;;;;;;;;4960640;28;92629;-82
2023/03/20 13:05:23;;;;;;;26.80;10.35;;;;;;;;;;4975181;28;92398;-82
2023/03/20 13:07:49;;;;;;;28.95;12.23;;;;;;;;;;4975857;28;96834;-82
2023/03/20 13:10:23;;;;;;;24.60;10.02;;;;;;;;;;4986622;28;94503;-82
2023/03/20 13:13:08;;;;;;;38.78;12.68;;;;;;;;;;4973733;28;92582;-82
2023/03/20 13:15:43;;;;;;;45.85;21.40;;;;;;;;;;4977116;28;94033;-82
2023/03/20 13:18:13;;;;;;;27.98;12.27;;;;;;;;;;4991986;28;97108;-81
2023/03/20 13:20:49;;;;;;;32.55;15.35;;;;;;;;;;4989066;28;94554;-81
2023/03/20 13:23:20;;;;;;;29.75;11.30;;;;;;;;;;4974182;28;93477;-81
2023/03/20 13:25:53;;;;;;;18.77;10.85;;;;;;;;;;4977273;28;94941;-81
2023/03/20 13:28:29;;;;;;;27.08;12.23;;;;;;;;;;4994767;28;96833;-82
2023/03/20 13:31:00;;;;;;;26.67;13.45;;;;;;;;;;4979502;28;97390;-82
2023/03/20 13:33:29;;;;;;;25.52;11.35;;;;;;;;;;4991541;28;92585;-81
2023/03/20 13:35:56;;;;;;;29.67;12.50;;;;;;;;;;4997565;28;93625;-82
2023/03/20 13:38:24;;;;;;;38.05;13.35;;;;;;;;;;4996291;28;94026;-81
2023/03/20 13:40:54;;;;;;;27.67;12.25;;;;;;;;;;4993741;28;92520;-81
2023/03/20 13:43:25;;;;;;;26.42;12.05;;;;;;;;;;4996431;28;93634;-81
2023/03/20 13:45:58;;;;;;;35.50;12.75;;;;;;;;;;4983834;28;93818;-81
2023/03/20 13:48:33;;;;;;;25.95;11.93;;;;;;;;;;4974915;28;94068;-82
2023/03/20 13:51:06;;;;;;;23.13;11.55;;;;;;;;;;4990073;28;96776;-81
2023/03/20 13:53:53;;;;;;;25.23;11.77;;;;;;;;;;4994182;28;92474;-81
2023/03/20 13:56:20;;;;;;;26.90;11.35;;;;;;;;;;4982064;28;94224;-81
2023/03/20 13:58:51;;;;;;;27.80;12.20;;;;;;;;;;4994701;28;96236;-81
2023/03/20 14:01:33;;;;;;;25.60;11.18;;;;;;;;;;4992846;28;92432;-80
2023/03/20 14:04:00;;;;;;;29.02;11.63;;;;;;;;;;4979486;28;94216;-80
2023/03/20 14:06:30;;;;;;;30.55;11.27;;;;;;;;;;4994724;28;94752;-79
2023/03/20 14:08:57;;;;;;;34.92;12.65;;;;;;;;;;4988031;28;94549;-79
2023/03/20 14:11:23;;;;;;;25.25;11.88;;;;;;;;;;4976911;28;93266;-80
2023/03/20 14:13:54;;;;;;;33.78;11.90;;;;;;;;;;4988978;28;93181;-81
2023/03/20 14:16:20;;;;;;;30.83;11.43;;;;;;;;;;4997756;28;95012;-80
2023/03/20 14:18:51;;;;;;;26.88;11.32;;;;;;;;;;4994396;28;97214;-80
2023/03/20 14:21:19;;;;;;;27.67;13.13;;;;;;;;;;4986541;28;93021;-81
2023/03/20 14:23:49;;;;;;;27.08;11.63;;;;;;;;;;4988803;28;95113;-86
2023/03/20 14:26:24;;;;;;;22.60;11.85;;;;;;;;;;4992600;28;93491;-84
2023/03/20 14:28:52;;;;;;;39.35;12.52;;;;;;;;;;4997226;28;92397;-81
2023/03/20 14:31:31;;;;;;;31.58;14.23;;;;;;;;;;4991665;28;94916;-81
2023/03/20 14:34:18;;;;;;;32.75;12.48;;;;;;;;;;4992737;28;92285;-80
2023/03/20 14:36:51;;;;;;;33.90;12.65;;;;;;;;;;4982290;28;93247;-81
2023/03/20 14:39:20;;;;;;;31.35;12.88;;;;;;;;;;4973989;28;95947;-81